createdAt,value
2019-05-13T00:02:28.052Z,100.00
2019-05-13T00:05:00.016Z,100.00
2019-05-13T00:07:34.097Z,100.00
2019-05-13T00:10:08.531Z,100.00
2019-05-13T00:12:40.553Z,100.00
2019-05-13T00:15:13.954Z,100.00
2019-05-13T00:17:45.751Z,100.00
2019-05-13T00:20:17.632Z,100.00
2019-05-13T00:22:50.516Z,100.00
2019-05-13T00:25:24.154Z,100.00
2019-05-13T00:27:55.953Z,100.00
2019-05-13T00:30:27.838Z,100.00
2019-05-13T00:32:59.986Z,100.00
2019-05-13T00:35:33.918Z,100.00
2019-05-13T00:38:05.259Z,100.00
2019-05-13T00:40:37.118Z,100.00
2019-05-13T00:43:09.539Z,100.00
2019-05-13T00:45:44.317Z,100.00
2019-05-13T00:48:16.169Z,100.00
2019-05-13T00:50:47.842Z,99.75
2019-05-13T00:53:19.799Z,99.28
2019-05-13T00:55:53.659Z,98.82
2019-05-13T00:58:25.352Z,98.24
2019-05-13T01:00:57.024Z,97.62
2019-05-13T01:03:28.866Z,97.00
2019-05-13T01:06:00.813Z,96.49
2019-05-13T01:08:34.142Z,95.98
2019-05-13T01:11:07.115Z,95.45
2019-05-13T01:13:38.883Z,94.97
2019-05-13T01:16:10.622Z,94.69
2019-05-13T01:18:43.256Z,94.24
2019-05-13T01:21:15.178Z,93.85
2019-05-13T01:23:47.133Z,93.54
2019-05-13T01:26:19.204Z,93.18
2019-05-13T01:28:50.945Z,92.90
2019-05-13T01:31:23.844Z,92.72
2019-05-13T01:33:57.452Z,92.66
2019-05-13T01:36:29.712Z,92.64
2019-05-13T01:39:04.144Z,92.68
2019-05-13T01:41:35.161Z,92.75
2019-05-13T01:44:07.085Z,92.81
2019-05-13T01:46:39.111Z,92.84
2019-05-13T01:49:10.963Z,92.75
2019-05-13T01:51:44.021Z,92.62
2019-05-13T01:54:16.225Z,92.48
2019-05-13T01:56:48.088Z,92.31
2019-05-13T01:59:20.043Z,92.27
2019-05-13T02:01:53.923Z,92.26
2019-05-13T02:04:25.307Z,92.23
2019-05-13T02:06:56.957Z,92.19
2019-05-13T02:09:29.309Z,92.19
2019-05-13T02:12:01.187Z,92.14
2019-05-13T02:14:34.075Z,92.08
2019-05-13T02:17:06.242Z,91.96
2019-05-13T02:19:41.280Z,91.84
2019-05-13T02:22:14.600Z,91.77
2019-05-13T02:24:46.659Z,91.71
2019-05-13T02:27:18.365Z,91.71
2019-05-13T02:29:50.172Z,91.67
2019-05-13T02:32:23.478Z,91.70
2019-05-13T02:34:55.216Z,91.82
2019-05-13T02:37:29.414Z,91.81
2019-05-13T02:40:03.706Z,91.70
2019-05-13T02:42:33.566Z,91.68
2019-05-13T02:45:05.962Z,91.56
2019-05-13T02:47:37.650Z,91.44
2019-05-13T02:50:12.228Z,91.29
2019-05-13T02:52:44.295Z,91.26
2019-05-13T02:55:16.575Z,91.27
2019-05-13T02:57:48.508Z,91.25
2019-05-13T03:00:23.556Z,91.33
2019-05-13T03:02:55.906Z,91.46
2019-05-13T03:05:27.443Z,91.64
2019-05-13T03:08:03.040Z,91.86
2019-05-13T03:10:34.065Z,91.92
2019-05-13T03:13:06.131Z,91.90
2019-05-13T03:15:42.690Z,91.78
2019-05-13T03:18:13.752Z,91.70
2019-05-13T03:20:46.003Z,91.52
2019-05-13T03:23:17.838Z,91.04
2019-05-13T03:25:49.674Z,90.27
2019-05-13T03:28:23.031Z,89.74
2019-05-13T03:30:56.798Z,89.31
2019-05-13T03:33:28.845Z,88.90
2019-05-13T03:36:06.402Z,88.55
2019-05-13T03:38:53.741Z,88.30
2019-05-13T03:41:12.184Z,87.92
2019-05-13T03:43:44.595Z,87.67
2019-05-13T03:46:17.878Z,87.44
2019-05-13T03:48:52.998Z,86.75
2019-05-13T03:51:24.979Z,85.96
2019-05-13T03:53:57.529Z,85.52
2019-05-13T03:56:32.609Z,84.91
2019-05-13T03:59:02.989Z,84.47
2019-05-13T04:01:34.983Z,84.51
2019-05-13T04:04:06.614Z,84.49
2019-05-13T04:06:38.593Z,83.61
2019-05-13T04:09:22.414Z,82.62
2019-05-13T04:11:43.772Z,82.18
2019-05-13T04:14:15.295Z,82.13
2019-05-13T04:16:48.983Z,82.39
2019-05-13T04:19:23.265Z,82.05
2019-05-13T04:21:54.467Z,80.51
2019-05-13T04:24:26.224Z,79.82
2019-05-13T04:26:58.099Z,79.50
2019-05-13T04:29:32.877Z,78.80
2019-05-13T04:32:05.073Z,78.71
2019-05-13T04:34:36.919Z,78.94
2019-05-13T04:37:08.643Z,77.66
2019-05-13T04:39:50.007Z,78.40
2019-05-13T04:42:13.750Z,78.09
2019-05-13T04:44:45.529Z,78.31
2019-05-13T04:47:17.188Z,78.28
2019-05-13T04:49:49.193Z,77.89
2019-05-13T04:52:22.232Z,76.96
2019-05-13T04:54:54.450Z,76.24
2019-05-13T04:57:26.162Z,76.33
2019-05-13T04:59:58.216Z,76.50
2019-05-13T05:02:55.008Z,75.77
2019-05-13T05:05:33.215Z,74.39
2019-05-13T05:08:28.405Z,74.53
2019-05-13T05:11:22.229Z,75.20
2019-05-13T05:14:02.477Z,75.34
2019-05-13T05:17:03.220Z,75.32
2019-05-13T05:20:04.068Z,75.68
2019-05-13T05:23:12.221Z,75.41
2019-05-13T05:26:01.774Z,75.64
2019-05-13T05:28:55.981Z,75.72
2019-05-13T05:31:45.632Z,75.62
2019-05-13T05:34:35.245Z,75.67
2019-05-13T05:37:45.419Z,74.05
2019-05-13T05:40:31.003Z,73.07
2019-05-13T05:42:56.895Z,72.43
2019-05-13T05:45:28.586Z,72.58
2019-05-13T05:48:02.255Z,72.39
2019-05-13T05:50:35.836Z,72.04
2019-05-13T05:53:07.501Z,72.20
2019-05-13T05:55:41.848Z,72.06
2019-05-13T05:58:14.772Z,72.07
2019-05-13T06:00:48.546Z,72.63
2019-05-13T06:03:21.948Z,72.47
2019-05-13T06:05:54.635Z,72.07
2019-05-13T06:08:29.110Z,71.62
2019-05-13T06:11:01.620Z,70.57
2019-05-13T06:13:33.643Z,69.96
2019-05-13T06:16:05.729Z,69.87
2019-05-13T06:18:37.679Z,69.76
2019-05-13T06:21:12.072Z,68.84
2019-05-13T06:23:43.155Z,68.05
2019-05-13T06:26:14.798Z,68.08
2019-05-13T06:28:46.434Z,68.07
2019-05-13T06:31:21.572Z,67.65
2019-05-13T06:33:53.455Z,67.03
2019-05-13T06:36:26.003Z,67.26
2019-05-13T06:38:57.856Z,67.06
2019-05-13T06:41:32.352Z,65.91
2019-05-13T06:44:05.825Z,64.32
2019-05-13T06:46:37.466Z,64.71
2019-05-13T06:49:09.310Z,65.24
2019-05-13T06:51:42.433Z,65.37
2019-05-13T06:54:14.095Z,64.54
2019-05-13T06:56:45.696Z,63.77
2019-05-13T06:59:17.341Z,64.56
2019-05-13T07:01:51.221Z,64.32
2019-05-13T07:04:22.532Z,64.38
2019-05-13T07:07:08.773Z,64.71
2019-05-13T07:09:27.906Z,64.66
2019-05-13T07:12:02.507Z,65.39
2019-05-13T07:14:33.562Z,65.31
2019-05-13T07:17:05.297Z,64.88
2019-05-13T07:19:36.949Z,63.96
2019-05-13T07:22:08.599Z,64.71
2019-05-13T07:24:41.455Z,65.48
2019-05-13T07:27:13.498Z,66.09
2019-05-13T07:29:45.505Z,66.15
2019-05-13T07:32:17.718Z,65.54
2019-05-13T07:34:52.865Z,65.19
2019-05-13T07:37:23.417Z,64.53
2019-05-13T07:39:55.218Z,64.72
2019-05-13T07:42:27.410Z,64.35
2019-05-13T07:45:01.380Z,63.62
2019-05-13T07:47:32.559Z,63.82
2019-05-13T07:50:07.186Z,63.73
2019-05-13T07:52:39.128Z,63.71
2019-05-13T07:55:12.115Z,63.89
2019-05-13T07:57:43.875Z,61.81
2019-05-13T08:00:16.051Z,61.81
2019-05-13T08:02:47.712Z,61.26
2019-05-13T08:05:22.224Z,59.34
2019-05-13T08:07:53.083Z,59.43
2019-05-13T08:10:24.647Z,59.81
2019-05-13T08:12:56.262Z,60.20
2019-05-13T08:15:28.136Z,60.17
2019-05-13T08:18:02.111Z,61.32
2019-05-13T08:20:33.160Z,61.61
2019-05-13T08:23:04.879Z,60.79
2019-05-13T08:25:36.618Z,61.64
2019-05-13T08:28:08.302Z,60.87
2019-05-13T08:30:42.673Z,59.77
2019-05-13T08:33:13.624Z,59.23
2019-05-13T08:35:47.197Z,59.87
2019-05-13T08:38:18.767Z,61.29
2019-05-13T08:40:51.240Z,60.42
2019-05-13T08:43:23.102Z,59.73
2019-05-13T08:45:55.758Z,58.05
2019-05-13T08:48:27.755Z,57.12
2019-05-13T08:50:59.327Z,56.59
2019-05-13T08:53:31.721Z,55.73
2019-05-13T08:56:03.744Z,55.28
2019-05-13T08:58:35.668Z,54.16
2019-05-13T09:01:07.338Z,52.67
2019-05-13T09:03:41.433Z,53.38
2019-05-13T09:06:12.199Z,53.69
2019-05-13T09:08:43.867Z,47.93
2019-05-13T09:11:15.668Z,47.18
2019-05-13T09:13:47.404Z,48.03
2019-05-13T09:16:21.417Z,47.93
2019-05-13T09:18:52.620Z,47.72
2019-05-13T09:21:24.294Z,48.16
2019-05-13T09:23:55.909Z,49.19
2019-05-13T09:26:27.671Z,49.29
2019-05-13T09:29:01.452Z,49.51
2019-05-13T09:31:32.702Z,49.60
2019-05-13T09:34:04.475Z,50.25
2019-05-13T09:36:36.161Z,52.15
2019-05-13T09:39:09.119Z,53.28
2019-05-13T09:41:44.651Z,51.32
2019-05-13T09:44:16.022Z,50.07
2019-05-13T09:46:47.566Z,50.81
2019-05-13T09:49:20.875Z,49.24
2019-05-13T09:51:52.539Z,50.23
2019-05-13T09:54:32.910Z,50.34
2019-05-13T09:57:03.155Z,49.71
2019-05-13T09:59:34.902Z,49.78
2019-05-13T10:02:08.613Z,49.97
2019-05-13T10:04:43.184Z,50.39
2019-05-13T10:07:12.739Z,51.98
2019-05-13T10:09:48.217Z,52.58
2019-05-13T10:12:18.095Z,52.84
2019-05-13T10:14:50.049Z,52.43
2019-05-13T10:17:22.423Z,50.34
2019-05-13T10:20:12.499Z,49.12
2019-05-13T10:22:44.374Z,50.04
2019-05-13T10:25:18.917Z,49.88
2019-05-13T10:27:51.144Z,46.92
2019-05-13T10:30:23.124Z,46.92
2019-05-13T10:32:59.319Z,45.81
2019-05-13T10:35:29.622Z,45.95
2019-05-13T10:38:04.324Z,45.19
2019-05-13T10:40:38.040Z,46.12
2019-05-13T10:43:27.131Z,44.94
2019-05-13T10:45:43.609Z,45.87
2019-05-13T10:48:15.416Z,45.05
2019-05-13T10:50:47.074Z,44.43
2019-05-13T10:53:18.739Z,43.14
2019-05-13T10:55:52.204Z,42.98
2019-05-13T10:58:23.707Z,42.76
2019-05-13T11:00:56.815Z,41.90
2019-05-13T11:03:28.392Z,42.33
2019-05-13T11:06:00.084Z,43.09
2019-05-13T11:08:33.012Z,44.13
2019-05-13T11:11:05.235Z,44.01
2019-05-13T11:13:52.303Z,44.47
2019-05-13T11:16:12.214Z,44.27
2019-05-13T11:18:44.123Z,47.01
2019-05-13T11:21:16.193Z,47.01
2019-05-13T11:23:48.287Z,46.56
2019-05-13T11:26:22.107Z,47.58
2019-05-13T11:28:53.187Z,48.78
2019-05-13T11:31:24.777Z,49.49
2019-05-13T11:33:56.716Z,49.88
2019-05-13T11:36:28.507Z,50.11
2019-05-13T11:39:03.030Z,49.87
2019-05-13T11:41:33.560Z,50.24
2019-05-13T11:44:12.566Z,51.00
2019-05-13T11:46:38.604Z,51.31
2019-05-13T11:49:11.834Z,51.50
2019-05-13T11:51:43.730Z,51.54
2019-05-13T11:54:15.371Z,52.17
2019-05-13T11:56:50.570Z,51.48
2019-05-13T11:59:22.039Z,52.20
2019-05-13T12:01:54.794Z,51.35
2019-05-13T12:04:26.814Z,51.02
2019-05-13T12:06:58.460Z,50.10
2019-05-13T12:09:31.990Z,50.06
2019-05-13T12:12:03.747Z,48.60
2019-05-13T12:14:48.426Z,47.57
2019-05-13T12:17:13.907Z,48.54
2019-05-13T12:19:43.320Z,48.54
2019-05-13T12:22:14.952Z,47.88
2019-05-13T12:24:46.685Z,46.07
2019-05-13T12:27:18.260Z,45.27
2019-05-13T12:29:52.827Z,43.85
2019-05-13T12:32:24.302Z,45.85
2019-05-13T12:34:55.903Z,46.48
2019-05-13T12:37:27.567Z,47.63
2019-05-13T12:40:02.896Z,48.54
2019-05-13T12:42:33.790Z,48.49
2019-05-13T12:45:10.203Z,49.30
2019-05-13T12:47:43.244Z,49.31
2019-05-13T12:50:15.529Z,48.67
2019-05-13T12:52:47.218Z,48.26
2019-05-13T12:55:18.870Z,48.75
2019-05-13T12:57:52.662Z,47.78
2019-05-13T13:00:23.960Z,48.22
2019-05-13T13:02:55.659Z,47.80
2019-05-13T13:05:33.176Z,44.94
2019-05-13T13:08:18.547Z,45.70
2019-05-13T13:13:07.544Z,47.65
2019-05-13T13:15:43.480Z,47.45
2019-05-13T13:18:14.290Z,48.10
2019-05-13T13:20:46.025Z,48.99
2019-05-13T13:23:17.661Z,49.60
2019-05-13T13:25:54.186Z,49.61
2019-05-13T13:28:23.960Z,49.93
2019-05-13T13:30:55.931Z,50.67
2019-05-13T13:33:28.585Z,51.34
2019-05-13T13:36:04.331Z,51.59
2019-05-13T13:38:33.853Z,52.58
2019-05-13T13:41:05.873Z,53.20
2019-05-13T13:43:37.611Z,53.99
2019-05-13T13:46:25.147Z,55.28
2019-05-13T13:51:17.392Z,56.64
2019-05-13T13:53:49.156Z,57.60
2019-05-13T13:56:25.180Z,57.57
2019-05-13T13:58:54.232Z,57.86
2019-05-13T14:01:27.118Z,58.18
2019-05-13T14:04:02.797Z,58.43
2019-05-13T14:06:58.943Z,56.08
2019-05-13T14:07:09.024Z,46.92
2019-05-13T14:07:21.538Z,58.54
2019-05-13T14:09:07.962Z,58.65
2019-05-13T14:11:41.797Z,58.40
2019-05-13T14:14:12.790Z,58.58
2019-05-13T14:16:46.765Z,58.88
2019-05-13T14:19:18.712Z,59.10
2019-05-13T14:21:52.541Z,58.87
2019-05-13T14:24:24.047Z,58.89
2019-05-13T14:26:55.645Z,58.63
2019-05-13T14:29:38.630Z,58.80
2019-05-13T14:32:01.393Z,58.99
2019-05-13T14:34:34.177Z,59.19
2019-05-13T14:37:06.373Z,58.91
2019-05-13T14:39:37.912Z,58.48
2019-05-13T14:42:11.577Z,58.74
2019-05-13T14:44:42.996Z,58.88
2019-05-13T14:47:14.581Z,59.34
2019-05-13T14:49:46.181Z,59.37
2019-05-13T14:52:17.885Z,59.42
2019-05-13T14:54:51.444Z,60.01
2019-05-13T14:57:23.223Z,59.93
2019-05-13T14:59:54.876Z,59.88
2019-05-13T15:02:26.832Z,58.87
2019-05-13T15:04:59.179Z,57.57
2019-05-13T15:07:32.216Z,58.00
2019-05-13T15:10:05.789Z,58.01
2019-05-13T15:12:37.233Z,58.66
2019-05-13T15:15:09.769Z,58.80
2019-05-13T15:17:42.634Z,59.75
2019-05-13T15:20:16.627Z,60.50
2019-05-13T15:22:48.635Z,60.87
2019-05-13T15:25:22.123Z,61.45
2019-05-13T15:27:54.027Z,62.05
2019-05-13T15:30:25.715Z,62.41
2019-05-13T15:32:57.396Z,62.46
2019-05-13T15:38:01.345Z,61.58
2019-05-13T15:40:33.070Z,60.36
2019-05-13T15:43:04.955Z,60.89
2019-05-13T15:45:36.797Z,61.32
2019-05-13T15:48:08.607Z,62.07
2019-05-13T15:50:42.224Z,62.63
2019-05-13T15:53:13.514Z,63.36
2019-05-13T15:55:45.193Z,64.23
2019-05-13T15:58:16.892Z,64.83
2019-05-13T16:00:48.606Z,65.66
2019-05-13T16:03:20.284Z,66.13
2019-05-13T16:05:53.542Z,66.70
2019-05-13T16:08:25.244Z,67.09
2019-05-13T16:10:57.440Z,66.07
2019-05-13T16:13:29.531Z,65.31
2019-05-13T16:16:02.796Z,65.45
2019-05-13T16:18:34.733Z,65.58
2019-05-13T16:21:06.691Z,65.02
2019-05-13T16:23:38.756Z,64.81
2019-05-13T16:26:11.634Z,64.99
2019-05-13T16:28:44.011Z,65.62
2019-05-13T16:31:15.779Z,66.06
2019-05-13T16:33:47.715Z,66.89
2019-05-13T16:36:22.103Z,67.56
2019-05-13T16:38:52.874Z,68.44
2019-05-13T16:41:24.956Z,69.27
2019-05-13T16:43:56.712Z,70.12
2019-05-13T16:46:31.423Z,71.04
2019-05-13T16:49:02.094Z,71.74
2019-05-13T16:51:33.550Z,72.45
2019-05-13T16:54:05.599Z,73.26
2019-05-13T16:56:41.822Z,73.80
2019-05-13T16:59:12.256Z,74.25
2019-05-13T17:01:45.880Z,74.96
2019-05-13T17:04:17.643Z,75.53
2019-05-13T17:06:49.497Z,75.97
2019-05-13T17:09:22.485Z,76.58
2019-05-13T17:11:57.006Z,76.93
2019-05-13T17:14:32.294Z,77.22
2019-05-13T17:17:03.698Z,77.53
2019-05-13T17:19:35.563Z,77.82
2019-05-13T17:22:07.604Z,77.96
2019-05-13T17:24:42.652Z,78.37
2019-05-13T17:27:14.517Z,78.61
2019-05-13T17:29:46.360Z,78.98
2019-05-13T17:32:22.315Z,79.35
2019-05-13T17:34:53.464Z,79.94
2019-05-13T17:37:26.659Z,80.53
2019-05-13T17:40:11.848Z,80.81
2019-05-13T17:42:44.116Z,81.02
2019-05-13T17:45:18.023Z,81.15
2019-05-13T17:47:51.851Z,81.51
2019-05-13T17:50:24.919Z,81.64
2019-05-13T17:52:58.314Z,81.10
2019-05-13T17:55:30.156Z,80.43
2019-05-13T17:58:08.159Z,80.63
2019-05-13T18:00:41.496Z,80.73
2019-05-13T18:03:13.536Z,80.70
2019-05-13T18:05:47.529Z,80.55
2019-05-13T18:08:20.028Z,80.44
2019-05-13T18:10:52.088Z,80.09
2019-05-13T18:13:26.693Z,79.31
2019-05-13T18:16:02.538Z,78.34
2019-05-13T18:18:43.130Z,78.18
2019-05-13T18:21:08.855Z,78.11
2019-05-13T18:23:41.469Z,77.88
2019-05-13T18:26:16.067Z,77.73
2019-05-13T18:28:46.883Z,77.56
2019-05-13T18:31:18.796Z,77.59
2019-05-13T18:33:53.958Z,77.51
2019-05-13T18:36:31.664Z,77.76
2019-05-13T18:39:05.090Z,78.00
2019-05-13T18:41:37.383Z,78.23
2019-05-13T18:44:14.101Z,78.68
2019-05-13T18:46:46.396Z,78.81
2019-05-13T18:49:18.190Z,79.22
2019-05-13T18:51:49.913Z,79.28
2019-05-13T18:54:21.754Z,79.65
2019-05-13T18:56:53.817Z,79.62
2019-05-13T18:59:26.005Z,79.44
2019-05-13T19:02:01.080Z,79.58
2019-05-13T19:04:32.905Z,79.76
2019-05-13T19:07:17.556Z,79.82
2019-05-13T19:09:49.222Z,80.08
2019-05-13T19:12:22.123Z,79.96
2019-05-13T19:14:54.961Z,79.82
2019-05-13T19:17:32.079Z,79.60
2019-05-13T19:20:02.994Z,79.55
2019-05-13T19:22:37.936Z,79.56
2019-05-13T19:25:11.990Z,79.72
2019-05-13T19:27:43.491Z,79.88
2019-05-13T19:30:21.399Z,80.02
2019-05-13T19:32:54.176Z,80.45
2019-05-13T19:35:26.845Z,80.68
2019-05-13T19:38:01.495Z,80.49
2019-05-13T19:40:33.960Z,80.92
2019-05-13T19:43:05.925Z,81.15
2019-05-13T19:45:37.585Z,80.92
2019-05-13T19:48:11.862Z,80.20
2019-05-13T19:50:43.251Z,79.66
2019-05-13T19:53:15.296Z,79.36
2019-05-13T19:55:47.370Z,79.53
2019-05-13T19:58:21.507Z,79.34
2019-05-13T20:00:52.723Z,78.97
2019-05-13T20:03:26.182Z,78.58
2019-05-13T20:05:58.095Z,78.29
2019-05-13T20:08:32.006Z,78.25
2019-05-13T20:11:03.933Z,78.20
2019-05-13T20:13:38.592Z,78.14
2019-05-13T20:16:11.703Z,77.94
2019-05-13T20:18:43.787Z,77.80
2019-05-13T20:21:15.459Z,77.91
2019-05-13T20:23:47.669Z,78.24
2019-05-13T20:26:21.693Z,78.50
2019-05-13T20:28:54.392Z,78.77
2019-05-13T20:31:27.963Z,78.97
2019-05-13T20:34:01.704Z,79.07
2019-05-13T20:36:33.119Z,79.36
2019-05-13T20:39:05.977Z,79.67
2019-05-13T20:41:38.165Z,79.72
2019-05-13T20:44:10.130Z,79.70
2019-05-13T20:46:42.348Z,79.74
2019-05-13T20:49:14.344Z,79.67
2019-05-13T20:51:46.223Z,79.62
2019-05-13T20:54:18.182Z,79.67
2019-05-13T20:56:51.805Z,79.67
2019-05-13T20:59:23.521Z,79.67
2019-05-13T21:01:55.297Z,79.78
2019-05-13T21:04:27.963Z,79.84
2019-05-13T21:07:01.926Z,79.94
2019-05-13T21:09:33.235Z,80.25
2019-05-13T21:12:05.198Z,80.44
2019-05-13T21:14:38.566Z,80.47
2019-05-13T21:17:12.215Z,80.71
2019-05-13T21:19:43.624Z,80.73
2019-05-13T21:22:15.826Z,80.88
2019-05-13T21:24:47.554Z,81.25
2019-05-13T21:27:19.437Z,81.86
2019-05-13T21:29:52.028Z,82.50
2019-05-13T21:32:24.975Z,83.06
2019-05-13T21:34:56.960Z,83.52
2019-05-13T21:37:29.019Z,83.85
2019-05-13T21:40:00.969Z,84.20
2019-05-13T21:42:33.148Z,84.45
2019-05-13T21:45:07.454Z,84.73
2019-05-13T21:47:39.414Z,84.94
2019-05-13T21:50:11.811Z,85.16
2019-05-13T21:52:44.106Z,85.22
2019-05-13T21:55:15.857Z,85.33
2019-05-13T21:57:47.593Z,85.51
2019-05-13T22:00:23.713Z,85.85
2019-05-13T22:02:56.328Z,86.15
2019-05-13T22:05:28.244Z,86.48
2019-05-13T22:08:01.659Z,86.90
2019-05-13T22:10:33.534Z,87.30
2019-05-13T22:13:05.415Z,87.70
2019-05-13T22:15:37.475Z,88.03
2019-05-13T22:18:11.334Z,88.35
2019-05-13T22:20:49.739Z,88.64
2019-05-13T22:23:17.684Z,88.96
2019-05-13T22:25:51.451Z,89.22
2019-05-13T22:28:22.918Z,89.44
2019-05-13T22:30:54.785Z,89.66
2019-05-13T22:33:26.927Z,89.85
2019-05-13T22:36:01.368Z,90.05
2019-05-13T22:38:32.659Z,90.28
2019-05-13T22:41:04.473Z,90.42
2019-05-13T22:43:36.526Z,90.60
2019-05-13T22:46:08.709Z,90.78
2019-05-13T22:48:41.899Z,91.02
2019-05-13T22:51:13.958Z,91.31
2019-05-13T22:53:45.721Z,91.56
2019-05-13T22:56:17.583Z,91.82
2019-05-13T22:58:51.650Z,92.12
2019-05-13T23:01:23.332Z,92.14
2019-05-13T23:03:55.338Z,92.15
2019-05-13T23:06:27.552Z,92.10
2019-05-13T23:09:01.740Z,92.11
2019-05-13T23:11:33.463Z,92.16
2019-05-13T23:14:09.967Z,92.23
2019-05-13T23:16:38.704Z,92.36
2019-05-13T23:19:11.156Z,92.47
2019-05-13T23:21:42.942Z,92.56
2019-05-13T23:24:15.738Z,92.68
2019-05-13T23:26:47.485Z,92.77
2019-05-13T23:29:21.423Z,92.91
2019-05-13T23:31:52.823Z,93.00
2019-05-13T23:34:24.588Z,93.08
2019-05-13T23:36:56.448Z,93.24
2019-05-13T23:39:28.310Z,93.42
2019-05-13T23:42:01.547Z,93.62
2019-05-13T23:44:33.151Z,93.75
2019-05-13T23:47:04.942Z,93.82
2019-05-13T23:49:36.870Z,93.92
2019-05-13T23:52:11.668Z,94.07
2019-05-13T23:54:43.272Z,94.19
2019-05-13T23:57:15.113Z,94.30
2019-05-13T23:59:47.095Z,94.41
